sensor_id;sensor_type;location;lat;lon;timestamp;P1;durP1;ratioP1;P2;durP2;ratioP2
47922;SDS011;33688;44.354;9.228;2023-08-06T00:01:07;0.50;;;0.43;;
47922;SDS011;33688;44.354;9.228;2023-08-06T00:03:35;0.50;;;0.50;;
47922;SDS011;33688;44.354;9.228;2023-08-06T00:06:04;0.93;;;0.65;;
47922;SDS011;33688;44.354;9.228;2023-08-06T00:08:31;0.60;;;0.60;;
47922;SDS011;33688;44.354;9.228;2023-08-06T00:13:48;0.43;;;0.43;;
47922;SDS011;33688;44.354;9.228;2023-08-06T00:16:14;0.40;;;0.38;;
47922;SDS011;33688;44.354;9.228;2023-08-06T00:18:41;0.85;;;0.43;;
47922;SDS011;33688;44.354;9.228;2023-08-06T00:21:07;0.40;;;0.40;;
47922;SDS011;33688;44.354;9.228;2023-08-06T00:23:33;0.55;;;0.55;;
47922;SDS011;33688;44.354;9.228;2023-08-06T00:26:00;0.20;;;0.20;;
47922;SDS011;33688;44.354;9.228;2023-08-06T00:28:25;0.45;;;0.43;;
47922;SDS011;33688;44.354;9.228;2023-08-06T00:30:55;0.60;;;0.60;;
47922;SDS011;33688;44.354;9.228;2023-08-06T00:33:24;0.52;;;0.40;;
47922;SDS011;33688;44.354;9.228;2023-08-06T00:35:50;0.47;;;0.40;;
47922;SDS011;33688;44.354;9.228;2023-08-06T00:38:16;0.60;;;0.47;;
47922;SDS011;33688;44.354;9.228;2023-08-06T00:40:42;0.55;;;0.47;;
47922;SDS011;33688;44.354;9.228;2023-08-06T00:43:11;0.88;;;0.70;;
47922;SDS011;33688;44.354;9.228;2023-08-06T00:45:37;1.75;;;0.70;;
47922;SDS011;33688;44.354;9.228;2023-08-06T00:48:03;0.50;;;0.50;;
47922;SDS011;33688;44.354;9.228;2023-08-06T00:50:32;0.80;;;0.80;;
47922;SDS011;33688;44.354;9.228;2023-08-06T00:52:58;0.40;;;0.40;;
47922;SDS011;33688;44.354;9.228;2023-08-06T00:55:25;0.30;;;0.30;;
47922;SDS011;33688;44.354;9.228;2023-08-06T00:57:52;0.40;;;0.40;;
47922;SDS011;33688;44.354;9.228;2023-08-06T01:00:21;0.50;;;0.50;;
47922;SDS011;33688;44.354;9.228;2023-08-06T01:02:49;0.55;;;0.55;;
47922;SDS011;33688;44.354;9.228;2023-08-06T01:05:15;0.47;;;0.30;;
47922;SDS011;33688;44.354;9.228;2023-08-06T01:16:19;0.65;;;0.50;;
47922;SDS011;33688;44.354;9.228;2023-08-06T01:18:47;0.30;;;0.30;;
47922;SDS011;33688;44.354;9.228;2023-08-06T01:21:18;0.40;;;0.30;;
47922;SDS011;33688;44.354;9.228;2023-08-06T01:23:44;1.00;;;0.52;;
47922;SDS011;33688;44.354;9.228;2023-08-06T01:29:12;0.40;;;0.40;;
47922;SDS011;33688;44.354;9.228;2023-08-06T01:31:47;0.28;;;0.28;;
47922;SDS011;33688;44.354;9.228;2023-08-06T01:34:22;0.95;;;0.40;;
47922;SDS011;33688;44.354;9.228;2023-08-06T01:36:51;0.30;;;0.30;;
47922;SDS011;33688;44.354;9.228;2023-08-06T01:39:18;0.63;;;0.45;;
47922;SDS011;33688;44.354;9.228;2023-08-06T01:41:49;1.05;;;0.65;;
47922;SDS011;33688;44.354;9.228;2023-08-06T01:44:18;0.88;;;0.40;;
47922;SDS011;33688;44.354;9.228;2023-08-06T01:46:44;0.30;;;0.30;;
47922;SDS011;33688;44.354;9.228;2023-08-06T01:49:10;0.20;;;0.20;;
47922;SDS011;33688;44.354;9.228;2023-08-06T01:51:36;0.43;;;0.40;;
47922;SDS011;33688;44.354;9.228;2023-08-06T01:54:01;0.57;;;0.57;;
47922;SDS011;33688;44.354;9.228;2023-08-06T01:56:27;0.52;;;0.40;;
47922;SDS011;33688;44.354;9.228;2023-08-06T01:58:54;0.50;;;0.50;;
47922;SDS011;33688;44.354;9.228;2023-08-06T02:01:20;0.40;;;0.40;;
47922;SDS011;33688;44.354;9.228;2023-08-06T02:06:30;1.10;;;0.68;;
47922;SDS011;33688;44.354;9.228;2023-08-06T02:11:51;0.32;;;0.30;;
47922;SDS011;33688;44.354;9.228;2023-08-06T02:14:17;0.50;;;0.40;;
47922;SDS011;33688;44.354;9.228;2023-08-06T02:16:42;0.35;;;0.35;;
47922;SDS011;33688;44.354;9.228;2023-08-06T02:19:08;0.40;;;0.40;;
47922;SDS011;33688;44.354;9.228;2023-08-06T02:21:35;0.28;;;0.28;;
47922;SDS011;33688;44.354;9.228;2023-08-06T02:24:02;0.40;;;0.40;;
47922;SDS011;33688;44.354;9.228;2023-08-06T02:26:28;0.32;;;0.32;;
47922;SDS011;33688;44.354;9.228;2023-08-06T02:28:56;0.57;;;0.40;;
47922;SDS011;33688;44.354;9.228;2023-08-06T02:31:21;0.57;;;0.30;;
47922;SDS011;33688;44.354;9.228;2023-08-06T02:33:47;0.40;;;0.40;;
47922;SDS011;33688;44.354;9.228;2023-08-06T02:36:13;0.30;;;0.30;;
47922;SDS011;33688;44.354;9.228;2023-08-06T02:38:39;0.60;;;0.60;;
47922;SDS011;33688;44.354;9.228;2023-08-06T02:41:04;0.52;;;0.43;;
47922;SDS011;33688;44.354;9.228;2023-08-06T02:43:30;0.30;;;0.30;;
47922;SDS011;33688;44.354;9.228;2023-08-06T02:46:00;0.30;;;0.30;;
47922;SDS011;33688;44.354;9.228;2023-08-06T02:50:59;0.50;;;0.50;;
47922;SDS011;33688;44.354;9.228;2023-08-06T02:53:26;0.40;;;0.40;;
47922;SDS011;33688;44.354;9.228;2023-08-06T02:55:52;0.35;;;0.35;;
47922;SDS011;33688;44.354;9.228;2023-08-06T02:58:24;0.57;;;0.50;;
47922;SDS011;33688;44.354;9.228;2023-08-06T03:01:13;0.30;;;0.30;;
47922;SDS011;33688;44.354;9.228;2023-08-06T03:03:52;0.98;;;0.63;;
47922;SDS011;33688;44.354;9.228;2023-08-06T03:06:23;0.50;;;0.50;;
47922;SDS011;33688;44.354;9.228;2023-08-06T03:08:52;0.47;;;0.47;;
47922;SDS011;33688;44.354;9.228;2023-08-06T03:11:19;0.57;;;0.52;;
47922;SDS011;33688;44.354;9.228;2023-08-06T03:13:47;0.30;;;0.30;;
47922;SDS011;33688;44.354;9.228;2023-08-06T03:16:14;0.28;;;0.28;;
47922;SDS011;33688;44.354;9.228;2023-08-06T03:18:40;0.40;;;0.40;;
47922;SDS011;33688;44.354;9.228;2023-08-06T03:21:08;0.50;;;0.50;;
47922;SDS011;33688;44.354;9.228;2023-08-06T03:23:35;0.43;;;0.43;;
47922;SDS011;33688;44.354;9.228;2023-08-06T03:26:01;0.77;;;0.60;;
47922;SDS011;33688;44.354;9.228;2023-08-06T03:28:31;0.30;;;0.30;;
47922;SDS011;33688;44.354;9.228;2023-08-06T03:31:03;0.30;;;0.30;;
47922;SDS011;33688;44.354;9.228;2023-08-06T03:33:35;0.55;;;0.52;;
47922;SDS011;33688;44.354;9.228;2023-08-06T03:36:04;0.40;;;0.40;;
47922;SDS011;33688;44.354;9.228;2023-08-06T03:38:33;1.48;;;0.60;;
47922;SDS011;33688;44.354;9.228;2023-08-06T03:41:02;0.47;;;0.47;;
47922;SDS011;33688;44.354;9.228;2023-08-06T03:43:28;0.40;;;0.40;;
47922;SDS011;33688;44.354;9.228;2023-08-06T03:45:54;0.30;;;0.30;;
47922;SDS011;33688;44.354;9.228;2023-08-06T03:48:20;0.30;;;0.30;;
47922;SDS011;33688;44.354;9.228;2023-08-06T03:50:46;0.40;;;0.40;;
47922;SDS011;33688;44.354;9.228;2023-08-06T03:53:13;0.50;;;0.40;;
47922;SDS011;33688;44.354;9.228;2023-08-06T03:55:39;0.22;;;0.22;;
47922;SDS011;33688;44.354;9.228;2023-08-06T03:58:05;0.40;;;0.40;;
47922;SDS011;33688;44.354;9.228;2023-08-06T04:00:31;0.80;;;0.35;;
47922;SDS011;33688;44.354;9.228;2023-08-06T04:02:59;0.57;;;0.50;;
47922;SDS011;33688;44.354;9.228;2023-08-06T04:05:26;0.40;;;0.40;;
47922;SDS011;33688;44.354;9.228;2023-08-06T04:07:51;0.50;;;0.50;;
47922;SDS011;33688;44.354;9.228;2023-08-06T04:10:19;0.40;;;0.40;;
47922;SDS011;33688;44.354;9.228;2023-08-06T04:12:44;0.35;;;0.35;;
47922;SDS011;33688;44.354;9.228;2023-08-06T04:15:10;0.50;;;0.50;;
47922;SDS011;33688;44.354;9.228;2023-08-06T04:17:36;0.50;;;0.40;;
47922;SDS011;33688;44.354;9.228;2023-08-06T04:20:03;1.85;;;0.50;;
47922;SDS011;33688;44.354;9.228;2023-08-06T04:22:29;0.28;;;0.28;;
47922;SDS011;33688;44.354;9.228;2023-08-06T04:24:54;0.40;;;0.40;;
47922;SDS011;33688;44.354;9.228;2023-08-06T04:27:20;0.60;;;0.45;;
47922;SDS011;33688;44.354;9.228;2023-08-06T04:29:47;0.30;;;0.30;;
47922;SDS011;33688;44.354;9.228;2023-08-06T04:32:16;0.30;;;0.30;;
47922;SDS011;33688;44.354;9.228;2023-08-06T04:34:48;0.43;;;0.40;;
47922;SDS011;33688;44.354;9.228;2023-08-06T04:37:14;0.45;;;0.40;;
47922;SDS011;33688;44.354;9.228;2023-08-06T04:39:42;0.25;;;0.20;;
47922;SDS011;33688;44.354;9.228;2023-08-06T04:42:10;0.20;;;0.20;;
47922;SDS011;33688;44.354;9.228;2023-08-06T04:44:36;0.32;;;0.32;;
47922;SDS011;33688;44.354;9.228;2023-08-06T04:47:03;0.95;;;0.32;;
47922;SDS011;33688;44.354;9.228;2023-08-06T04:49:29;0.90;;;0.30;;
47922;SDS011;33688;44.354;9.228;2023-08-06T04:51:54;0.40;;;0.40;;
47922;SDS011;33688;44.354;9.228;2023-08-06T04:54:21;0.40;;;0.40;;
47922;SDS011;33688;44.354;9.228;2023-08-06T04:56:49;0.30;;;0.30;;
47922;SDS011;33688;44.354;9.228;2023-08-06T04:59:15;0.30;;;0.30;;
47922;SDS011;33688;44.354;9.228;2023-08-06T05:01:41;0.32;;;0.32;;
47922;SDS011;33688;44.354;9.228;2023-08-06T05:04:07;0.43;;;0.43;;
47922;SDS011;33688;44.354;9.228;2023-08-06T05:06:33;0.35;;;0.35;;
47922;SDS011;33688;44.354;9.228;2023-08-06T05:08:59;0.30;;;0.30;;
47922;SDS011;33688;44.354;9.228;2023-08-06T05:13:54;0.30;;;0.30;;
47922;SDS011;33688;44.354;9.228;2023-08-06T05:16:19;0.50;;;0.50;;
47922;SDS011;33688;44.354;9.228;2023-08-06T05:18:46;0.30;;;0.30;;
47922;SDS011;33688;44.354;9.228;2023-08-06T05:21:11;0.40;;;0.40;;
47922;SDS011;33688;44.354;9.228;2023-08-06T05:23:37;0.30;;;0.30;;
47922;SDS011;33688;44.354;9.228;2023-08-06T05:26:04;0.47;;;0.40;;
47922;SDS011;33688;44.354;9.228;2023-08-06T05:31:22;0.30;;;0.30;;
47922;SDS011;33688;44.354;9.228;2023-08-06T05:33:48;1.08;;;0.73;;
47922;SDS011;33688;44.354;9.228;2023-08-06T05:36:14;0.65;;;0.52;;
47922;SDS011;33688;44.354;9.228;2023-08-06T05:38:42;0.50;;;0.50;;
47922;SDS011;33688;44.354;9.228;2023-08-06T05:41:08;0.55;;;0.55;;
47922;SDS011;33688;44.354;9.228;2023-08-06T05:43:34;0.40;;;0.40;;
47922;SDS011;33688;44.354;9.228;2023-08-06T05:46:00;0.65;;;0.65;;
47922;SDS011;33688;44.354;9.228;2023-08-06T05:48:26;1.15;;;0.60;;
47922;SDS011;33688;44.354;9.228;2023-08-06T05:50:53;0.65;;;0.65;;
47922;SDS011;33688;44.354;9.228;2023-08-06T05:53:19;0.52;;;0.50;;
47922;SDS011;33688;44.354;9.228;2023-08-06T05:55:44;0.50;;;0.50;;
47922;SDS011;33688;44.354;9.228;2023-08-06T05:58:10;0.90;;;0.50;;
47922;SDS011;33688;44.354;9.228;2023-08-06T06:00:36;0.50;;;0.45;;
47922;SDS011;33688;44.354;9.228;2023-08-06T06:05:46;0.57;;;0.57;;
47922;SDS011;33688;44.354;9.228;2023-08-06T06:08:12;0.55;;;0.55;;
47922;SDS011;33688;44.354;9.228;2023-08-06T06:10:38;0.57;;;0.47;;
47922;SDS011;33688;44.354;9.228;2023-08-06T06:15:33;0.50;;;0.40;;
47922;SDS011;33688;44.354;9.228;2023-08-06T06:17:59;0.93;;;0.63;;
47922;SDS011;33688;44.354;9.228;2023-08-06T06:20:25;0.70;;;0.70;;
47922;SDS011;33688;44.354;9.228;2023-08-06T06:22:51;0.90;;;0.68;;
47922;SDS011;33688;44.354;9.228;2023-08-06T06:25:18;1.33;;;0.70;;
47922;SDS011;33688;44.354;9.228;2023-08-06T06:27:43;0.55;;;0.50;;
47922;SDS011;33688;44.354;9.228;2023-08-06T06:30:09;0.50;;;0.50;;
47922;SDS011;33688;44.354;9.228;2023-08-06T06:32:39;0.63;;;0.55;;
47922;SDS011;33688;44.354;9.228;2023-08-06T06:35:06;0.50;;;0.40;;
47922;SDS011;33688;44.354;9.228;2023-08-06T06:37:32;0.68;;;0.60;;
47922;SDS011;33688;44.354;9.228;2023-08-06T06:39:58;0.73;;;0.70;;
47922;SDS011;33688;44.354;9.228;2023-08-06T06:42:24;0.98;;;0.70;;
47922;SDS011;33688;44.354;9.228;2023-08-06T06:44:51;0.50;;;0.50;;
47922;SDS011;33688;44.354;9.228;2023-08-06T06:47:17;0.98;;;0.80;;
47922;SDS011;33688;44.354;9.228;2023-08-06T06:49:43;1.13;;;0.70;;
47922;SDS011;33688;44.354;9.228;2023-08-06T06:52:09;1.48;;;0.90;;
47922;SDS011;33688;44.354;9.228;2023-08-06T06:54:36;0.77;;;0.75;;
47922;SDS011;33688;44.354;9.228;2023-08-06T06:57:02;0.60;;;0.60;;
47922;SDS011;33688;44.354;9.228;2023-08-06T06:59:28;0.60;;;0.60;;
47922;SDS011;33688;44.354;9.228;2023-08-06T07:01:54;0.63;;;0.60;;
47922;SDS011;33688;44.354;9.228;2023-08-06T07:04:20;0.40;;;0.40;;
47922;SDS011;33688;44.354;9.228;2023-08-06T07:06:47;1.08;;;0.60;;
47922;SDS011;33688;44.354;9.228;2023-08-06T07:09:13;0.50;;;0.50;;
47922;SDS011;33688;44.354;9.228;2023-08-06T07:11:38;1.17;;;0.60;;
47922;SDS011;33688;44.354;9.228;2023-08-06T07:14:08;0.65;;;0.60;;
47922;SDS011;33688;44.354;9.228;2023-08-06T07:16:34;0.65;;;0.60;;
47922;SDS011;33688;44.354;9.228;2023-08-06T07:19:00;0.70;;;0.70;;
47922;SDS011;33688;44.354;9.228;2023-08-06T07:21:26;0.50;;;0.50;;
47922;SDS011;33688;44.354;9.228;2023-08-06T07:23:52;0.80;;;0.70;;
47922;SDS011;33688;44.354;9.228;2023-08-06T07:26:17;1.15;;;0.60;;
47922;SDS011;33688;44.354;9.228;2023-08-06T07:28:45;0.73;;;0.63;;
47922;SDS011;33688;44.354;9.228;2023-08-06T07:31:11;0.55;;;0.55;;
47922;SDS011;33688;44.354;9.228;2023-08-06T07:33:37;0.57;;;0.57;;
47922;SDS011;33688;44.354;9.228;2023-08-06T07:36:13;1.15;;;0.65;;
47922;SDS011;33688;44.354;9.228;2023-08-06T07:38:40;1.20;;;1.10;;
47922;SDS011;33688;44.354;9.228;2023-08-06T07:41:06;0.80;;;0.60;;
47922;SDS011;33688;44.354;9.228;2023-08-06T07:43:32;0.77;;;0.70;;
47922;SDS011;33688;44.354;9.228;2023-08-06T07:45:59;1.17;;;0.60;;
47922;SDS011;33688;44.354;9.228;2023-08-06T07:48:26;1.08;;;0.73;;
47922;SDS011;33688;44.354;9.228;2023-08-06T07:53:39;1.33;;;0.68;;
47922;SDS011;33688;44.354;9.228;2023-08-06T07:56:05;0.75;;;0.55;;
47922;SDS011;33688;44.354;9.228;2023-08-06T08:01:20;1.75;;;0.65;;
47922;SDS011;33688;44.354;9.228;2023-08-06T08:03:46;0.98;;;0.80;;
47922;SDS011;33688;44.354;9.228;2023-08-06T08:06:11;1.58;;;0.60;;
47922;SDS011;33688;44.354;9.228;2023-08-06T08:08:37;0.77;;;0.60;;
47922;SDS011;33688;44.354;9.228;2023-08-06T08:11:04;1.55;;;0.80;;
47922;SDS011;33688;44.354;9.228;2023-08-06T08:13:30;2.50;;;0.90;;
47922;SDS011;33688;44.354;9.228;2023-08-06T08:15:59;0.60;;;0.52;;
47922;SDS011;33688;44.354;9.228;2023-08-06T08:18:26;2.13;;;0.90;;
47922;SDS011;33688;44.354;9.228;2023-08-06T08:20:52;1.17;;;0.57;;
47922;SDS011;33688;44.354;9.228;2023-08-06T08:23:18;2.15;;;0.95;;
47922;SDS011;33688;44.354;9.228;2023-08-06T08:25:44;1.77;;;1.10;;
47922;SDS011;33688;44.354;9.228;2023-08-06T08:30:54;0.95;;;0.73;;
47922;SDS011;33688;44.354;9.228;2023-08-06T08:33:21;3.55;;;0.80;;
47922;SDS011;33688;44.354;9.228;2023-08-06T08:35:47;1.38;;;0.75;;
47922;SDS011;33688;44.354;9.228;2023-08-06T08:38:13;2.03;;;0.88;;
47922;SDS011;33688;44.354;9.228;2023-08-06T08:40:46;1.23;;;0.57;;
47922;SDS011;33688;44.354;9.228;2023-08-06T08:43:16;1.60;;;0.90;;
47922;SDS011;33688;44.354;9.228;2023-08-06T08:45:43;1.73;;;0.70;;
47922;SDS011;33688;44.354;9.228;2023-08-06T08:48:14;1.45;;;0.73;;
47922;SDS011;33688;44.354;9.228;2023-08-06T08:50:44;2.53;;;1.13;;
47922;SDS011;33688;44.354;9.228;2023-08-06T08:53:12;2.42;;;0.75;;
47922;SDS011;33688;44.354;9.228;2023-08-06T08:55:40;1.60;;;0.95;;
47922;SDS011;33688;44.354;9.228;2023-08-06T08:58:11;2.22;;;1.13;;
47922;SDS011;33688;44.354;9.228;2023-08-06T09:00:38;3.53;;;1.10;;
47922;SDS011;33688;44.354;9.228;2023-08-06T09:03:05;1.20;;;0.60;;
47922;SDS011;33688;44.354;9.228;2023-08-06T09:05:33;0.63;;;0.63;;
47922;SDS011;33688;44.354;9.228;2023-08-06T09:08:04;1.92;;;0.98;;
47922;SDS011;33688;44.354;9.228;2023-08-06T09:10:30;2.45;;;0.80;;
47922;SDS011;33688;44.354;9.228;2023-08-06T09:12:58;1.38;;;0.82;;
47922;SDS011;33688;44.354;9.228;2023-08-06T09:15:24;1.70;;;0.80;;
47922;SDS011;33688;44.354;9.228;2023-08-06T09:17:52;1.25;;;0.80;;
47922;SDS011;33688;44.354;9.228;2023-08-06T09:20:19;0.80;;;0.60;;
47922;SDS011;33688;44.354;9.228;2023-08-06T09:22:47;2.75;;;1.25;;
47922;SDS011;33688;44.354;9.228;2023-08-06T09:25:23;1.33;;;0.85;;
47922;SDS011;33688;44.354;9.228;2023-08-06T09:27:50;1.95;;;0.90;;
47922;SDS011;33688;44.354;9.228;2023-08-06T09:30:33;2.67;;;1.15;;
47922;SDS011;33688;44.354;9.228;2023-08-06T09:33:04;3.53;;;1.30;;
47922;SDS011;33688;44.354;9.228;2023-08-06T09:35:39;2.20;;;1.10;;
47922;SDS011;33688;44.354;9.228;2023-08-06T09:38:06;1.58;;;0.80;;
47922;SDS011;33688;44.354;9.228;2023-08-06T09:40:35;1.88;;;0.85;;
47922;SDS011;33688;44.354;9.228;2023-08-06T09:43:03;3.35;;;1.10;;
47922;SDS011;33688;44.354;9.228;2023-08-06T09:45:31;3.15;;;1.13;;
47922;SDS011;33688;44.354;9.228;2023-08-06T09:48:05;3.08;;;1.05;;
47922;SDS011;33688;44.354;9.228;2023-08-06T09:50:34;3.45;;;1.33;;
47922;SDS011;33688;44.354;9.228;2023-08-06T09:53:02;2.80;;;1.17;;
47922;SDS011;33688;44.354;9.228;2023-08-06T09:55:31;2.28;;;0.80;;
47922;SDS011;33688;44.354;9.228;2023-08-06T09:58:00;1.67;;;1.02;;
47922;SDS011;33688;44.354;9.228;2023-08-06T10:00:27;3.17;;;1.02;;
47922;SDS011;33688;44.354;9.228;2023-08-06T10:02:59;4.13;;;1.27;;
47922;SDS011;33688;44.354;9.228;2023-08-06T10:05:26;2.88;;;1.17;;
47922;SDS011;33688;44.354;9.228;2023-08-06T10:10:37;1.90;;;1.00;;
47922;SDS011;33688;44.354;9.228;2023-08-06T10:13:02;1.83;;;1.15;;
47922;SDS011;33688;44.354;9.228;2023-08-06T10:15:31;5.50;;;1.23;;
47922;SDS011;33688;44.354;9.228;2023-08-06T10:20:32;1.90;;;1.00;;
47922;SDS011;33688;44.354;9.228;2023-08-06T10:23:03;2.80;;;1.10;;
47922;SDS011;33688;44.354;9.228;2023-08-06T10:25:32;1.50;;;0.77;;
47922;SDS011;33688;44.354;9.228;2023-08-06T10:28:09;1.98;;;1.00;;
47922;SDS011;33688;44.354;9.228;2023-08-06T10:30:43;4.55;;;1.60;;
47922;SDS011;33688;44.354;9.228;2023-08-06T10:33:10;4.32;;;1.52;;
47922;SDS011;33688;44.354;9.228;2023-08-06T10:35:46;4.20;;;1.80;;
47922;SDS011;33688;44.354;9.228;2023-08-06T10:38:22;4.00;;;1.70;;
47922;SDS011;33688;44.354;9.228;2023-08-06T10:43:27;1.92;;;1.00;;
47922;SDS011;33688;44.354;9.228;2023-08-06T10:45:55;3.17;;;1.02;;
47922;SDS011;33688;44.354;9.228;2023-08-06T10:48:30;2.45;;;1.02;;
47922;SDS011;33688;44.354;9.228;2023-08-06T10:51:08;2.38;;;1.15;;
47922;SDS011;33688;44.354;9.228;2023-08-06T10:53:36;3.00;;;1.33;;
47922;SDS011;33688;44.354;9.228;2023-08-06T10:56:02;2.53;;;1.33;;
47922;SDS011;33688;44.354;9.228;2023-08-06T10:58:48;7.45;;;1.45;;
47922;SDS011;33688;44.354;9.228;2023-08-06T11:01:15;1.55;;;1.15;;
47922;SDS011;33688;44.354;9.228;2023-08-06T11:03:42;3.95;;;1.30;;
47922;SDS011;33688;44.354;9.228;2023-08-06T11:06:10;4.95;;;1.35;;
47922;SDS011;33688;44.354;9.228;2023-08-06T11:08:46;3.60;;;1.40;;
47922;SDS011;33688;44.354;9.228;2023-08-06T11:11:17;2.13;;;1.02;;
47922;SDS011;33688;44.354;9.228;2023-08-06T11:13:45;2.20;;;1.05;;
47922;SDS011;33688;44.354;9.228;2023-08-06T11:16:17;3.35;;;1.23;;
47922;SDS011;33688;44.354;9.228;2023-08-06T11:18:45;5.40;;;1.17;;
47922;SDS011;33688;44.354;9.228;2023-08-06T11:21:13;3.38;;;1.23;;
47922;SDS011;33688;44.354;9.228;2023-08-06T11:23:39;4.03;;;1.25;;
47922;SDS011;33688;44.354;9.228;2023-08-06T11:26:08;4.97;;;1.38;;
47922;SDS011;33688;44.354;9.228;2023-08-06T11:28:34;3.78;;;1.20;;
47922;SDS011;33688;44.354;9.228;2023-08-06T11:33:52;3.47;;;1.10;;
47922;SDS011;33688;44.354;9.228;2023-08-06T11:36:32;3.83;;;1.33;;
47922;SDS011;33688;44.354;9.228;2023-08-06T11:41:28;2.25;;;1.42;;
47922;SDS011;33688;44.354;9.228;2023-08-06T11:43:54;2.58;;;1.35;;
47922;SDS011;33688;44.354;9.228;2023-08-06T11:46:21;1.35;;;0.82;;
47922;SDS011;33688;44.354;9.228;2023-08-06T11:48:55;2.85;;;1.13;;
47922;SDS011;33688;44.354;9.228;2023-08-06T11:51:25;2.80;;;1.27;;
47922;SDS011;33688;44.354;9.228;2023-08-06T11:53:51;4.80;;;1.65;;
47922;SDS011;33688;44.354;9.228;2023-08-06T11:56:24;3.58;;;1.10;;
47922;SDS011;33688;44.354;9.228;2023-08-06T12:01:45;2.67;;;1.30;;
47922;SDS011;33688;44.354;9.228;2023-08-06T12:04:12;4.45;;;1.58;;
47922;SDS011;33688;44.354;9.228;2023-08-06T12:06:43;2.83;;;1.13;;
47922;SDS011;33688;44.354;9.228;2023-08-06T12:09:09;3.30;;;1.05;;
47922;SDS011;33688;44.354;9.228;2023-08-06T12:11:37;3.22;;;1.42;;
47922;SDS011;33688;44.354;9.228;2023-08-06T12:14:03;2.95;;;1.20;;
47922;SDS011;33688;44.354;9.228;2023-08-06T12:16:29;5.05;;;1.70;;
47922;SDS011;33688;44.354;9.228;2023-08-06T12:18:56;2.13;;;1.25;;
47922;SDS011;33688;44.354;9.228;2023-08-06T12:21:24;4.10;;;1.13;;
47922;SDS011;33688;44.354;9.228;2023-08-06T12:23:50;5.10;;;1.80;;
47922;SDS011;33688;44.354;9.228;2023-08-06T12:26:16;6.63;;;1.75;;
47922;SDS011;33688;44.354;9.228;2023-08-06T12:28:42;3.70;;;1.50;;
47922;SDS011;33688;44.354;9.228;2023-08-06T12:31:08;3.13;;;1.52;;
47922;SDS011;33688;44.354;9.228;2023-08-06T12:33:33;3.70;;;1.33;;
47922;SDS011;33688;44.354;9.228;2023-08-06T12:36:00;3.45;;;1.38;;
47922;SDS011;33688;44.354;9.228;2023-08-06T12:38:25;4.20;;;2.00;;
47922;SDS011;33688;44.354;9.228;2023-08-06T12:40:51;4.18;;;1.55;;
47922;SDS011;33688;44.354;9.228;2023-08-06T12:43:17;2.67;;;1.42;;
47922;SDS011;33688;44.354;9.228;2023-08-06T12:45:43;2.67;;;1.23;;
47922;SDS011;33688;44.354;9.228;2023-08-06T12:48:08;4.43;;;1.60;;
47922;SDS011;33688;44.354;9.228;2023-08-06T12:50:34;3.70;;;1.33;;
47922;SDS011;33688;44.354;9.228;2023-08-06T12:53:00;4.13;;;1.77;;
47922;SDS011;33688;44.354;9.228;2023-08-06T12:55:27;2.50;;;1.23;;
47922;SDS011;33688;44.354;9.228;2023-08-06T12:57:54;4.30;;;1.48;;
47922;SDS011;33688;44.354;9.228;2023-08-06T13:00:20;4.88;;;1.50;;
47922;SDS011;33688;44.354;9.228;2023-08-06T13:02:46;3.78;;;1.50;;
47922;SDS011;33688;44.354;9.228;2023-08-06T13:05:11;3.60;;;1.60;;
47922;SDS011;33688;44.354;9.228;2023-08-06T13:07:39;2.83;;;1.27;;
47922;SDS011;33688;44.354;9.228;2023-08-06T13:10:05;1.70;;;1.20;;
47922;SDS011;33688;44.354;9.228;2023-08-06T13:12:32;3.25;;;1.48;;
47922;SDS011;33688;44.354;9.228;2023-08-06T13:14:57;4.20;;;1.15;;
47922;SDS011;33688;44.354;9.228;2023-08-06T13:17:24;3.70;;;1.50;;
47922;SDS011;33688;44.354;9.228;2023-08-06T13:19:50;4.15;;;1.67;;
47922;SDS011;33688;44.354;9.228;2023-08-06T13:22:16;2.40;;;1.17;;
47922;SDS011;33688;44.354;9.228;2023-08-06T13:24:41;2.85;;;1.35;;
47922;SDS011;33688;44.354;9.228;2023-08-06T13:27:07;2.45;;;1.20;;
47922;SDS011;33688;44.354;9.228;2023-08-06T13:29:35;4.32;;;1.35;;
47922;SDS011;33688;44.354;9.228;2023-08-06T13:32:01;3.22;;;1.33;;
47922;SDS011;33688;44.354;9.228;2023-08-06T13:34:28;2.30;;;1.10;;
47922;SDS011;33688;44.354;9.228;2023-08-06T13:36:54;5.85;;;1.52;;
47922;SDS011;33688;44.354;9.228;2023-08-06T13:42:06;4.22;;;1.30;;
47922;SDS011;33688;44.354;9.228;2023-08-06T13:44:33;2.60;;;1.10;;
47922;SDS011;33688;44.354;9.228;2023-08-06T13:47:01;2.45;;;1.38;;
47922;SDS011;33688;44.354;9.228;2023-08-06T13:49:28;3.00;;;1.70;;
47922;SDS011;33688;44.354;9.228;2023-08-06T13:51:54;1.90;;;1.25;;
47922;SDS011;33688;44.354;9.228;2023-08-06T13:54:19;2.33;;;1.15;;
47922;SDS011;33688;44.354;9.228;2023-08-06T13:56:46;1.63;;;0.93;;
47922;SDS011;33688;44.354;9.228;2023-08-06T13:59:14;2.25;;;1.10;;
47922;SDS011;33688;44.354;9.228;2023-08-06T14:01:41;3.28;;;1.40;;
47922;SDS011;33688;44.354;9.228;2023-08-06T14:06:53;3.15;;;1.27;;
47922;SDS011;33688;44.354;9.228;2023-08-06T14:09:19;2.28;;;1.02;;
47922;SDS011;33688;44.354;9.228;2023-08-06T14:11:45;2.55;;;1.00;;
47922;SDS011;33688;44.354;9.228;2023-08-06T14:14:11;3.47;;;1.20;;
47922;SDS011;33688;44.354;9.228;2023-08-06T14:16:39;4.40;;;1.60;;
47922;SDS011;33688;44.354;9.228;2023-08-06T14:19:05;3.92;;;1.20;;
47922;SDS011;33688;44.354;9.228;2023-08-06T14:21:30;1.70;;;0.90;;
47922;SDS011;33688;44.354;9.228;2023-08-06T14:23:56;3.80;;;1.23;;
47922;SDS011;33688;44.354;9.228;2023-08-06T14:26:22;3.20;;;1.10;;
47922;SDS011;33688;44.354;9.228;2023-08-06T14:28:48;2.20;;;1.10;;
47922;SDS011;33688;44.354;9.228;2023-08-06T14:31:14;2.30;;;1.20;;
47922;SDS011;33688;44.354;9.228;2023-08-06T14:33:40;2.25;;;1.05;;
47922;SDS011;33688;44.354;9.228;2023-08-06T14:36:05;2.13;;;1.15;;
47922;SDS011;33688;44.354;9.228;2023-08-06T14:38:31;4.80;;;1.25;;
47922;SDS011;33688;44.354;9.228;2023-08-06T14:40:57;3.35;;;1.58;;
47922;SDS011;33688;44.354;9.228;2023-08-06T14:43:23;3.20;;;1.50;;
47922;SDS011;33688;44.354;9.228;2023-08-06T14:45:49;4.03;;;1.05;;
47922;SDS011;33688;44.354;9.228;2023-08-06T14:48:16;3.22;;;1.20;;
47922;SDS011;33688;44.354;9.228;2023-08-06T14:50:42;2.65;;;1.20;;
47922;SDS011;33688;44.354;9.228;2023-08-06T14:53:07;5.72;;;1.38;;
47922;SDS011;33688;44.354;9.228;2023-08-06T14:55:35;6.45;;;1.42;;
47922;SDS011;33688;44.354;9.228;2023-08-06T14:58:02;3.28;;;1.00;;
47922;SDS011;33688;44.354;9.228;2023-08-06T15:00:31;5.40;;;1.20;;
47922;SDS011;33688;44.354;9.228;2023-08-06T15:02:57;3.05;;;1.45;;
47922;SDS011;33688;44.354;9.228;2023-08-06T15:05:22;5.22;;;1.75;;
47922;SDS011;33688;44.354;9.228;2023-08-06T15:07:49;3.90;;;1.50;;
47922;SDS011;33688;44.354;9.228;2023-08-06T15:10:15;2.85;;;1.20;;
47922;SDS011;33688;44.354;9.228;2023-08-06T15:12:41;5.22;;;1.13;;
47922;SDS011;33688;44.354;9.228;2023-08-06T15:15:07;4.28;;;1.48;;
47922;SDS011;33688;44.354;9.228;2023-08-06T15:17:33;3.85;;;1.05;;
47922;SDS011;33688;44.354;9.228;2023-08-06T15:19:59;4.50;;;1.55;;
47922;SDS011;33688;44.354;9.228;2023-08-06T15:25:10;3.53;;;1.17;;
47922;SDS011;33688;44.354;9.228;2023-08-06T15:27:36;4.60;;;1.20;;
47922;SDS011;33688;44.354;9.228;2023-08-06T15:30:03;3.25;;;1.27;;
47922;SDS011;33688;44.354;9.228;2023-08-06T15:32:30;3.00;;;1.38;;
47922;SDS011;33688;44.354;9.228;2023-08-06T15:34:56;2.42;;;1.30;;
47922;SDS011;33688;44.354;9.228;2023-08-06T15:37:22;3.33;;;1.33;;
47922;SDS011;33688;44.354;9.228;2023-08-06T15:39:48;1.95;;;0.98;;
47922;SDS011;33688;44.354;9.228;2023-08-06T15:42:14;3.55;;;1.02;;
47922;SDS011;33688;44.354;9.228;2023-08-06T15:44:42;8.18;;;1.15;;
47922;SDS011;33688;44.354;9.228;2023-08-06T15:47:09;1.75;;;0.93;;
47922;SDS011;33688;44.354;9.228;2023-08-06T15:49:40;5.80;;;1.58;;
47922;SDS011;33688;44.354;9.228;2023-08-06T15:52:09;2.38;;;1.15;;
47922;SDS011;33688;44.354;9.228;2023-08-06T15:54:35;4.45;;;1.60;;